Terminal Aerodrome Forecast
Issued by NWS

Home | Current Version | Previous Version | Text Only | Print | Product List | Glossary On
Versions: 1 2 3 4 5 6 7 8 9 10 11 12 13 14 15 16 17
356
FTUS43 KEAX 240402 AAA
TAFMKC
TAF AMD
KMKC 240402Z 2404/2424 18014G22KT P6SM BKN150
     FM240600 18013G21KT P6SM VCTS BKN045CB
      TEMPO 2406/2408 5SM -TSRA BKN035CB
     FM241000 19010KT P6SM BKN150
     FM241800 21011KT P6SM SCT040 BKN120=

USA.gov is the U.S. government's official web portal to all federal, state and local government web resources and services.